sensor_id;sensor_type;location;lat;lon;timestamp;P1;durP1;ratioP1;P2;durP2;ratioP2
61785;SDS011;47692;53.714;11.372;2023-04-06T00:00:21;16.65;;;9.57;;
61785;SDS011;47692;53.714;11.372;2023-04-06T00:02:47;17.30;;;9.23;;
61785;SDS011;47692;53.714;11.372;2023-04-06T00:05:13;17.42;;;9.32;;
61785;SDS011;47692;53.714;11.372;2023-04-06T00:07:38;13.63;;;7.90;;
61785;SDS011;47692;53.714;11.372;2023-04-06T00:10:03;17.00;;;8.45;;
61785;SDS011;47692;53.714;11.372;2023-04-06T00:12:29;20.95;;;10.48;;
61785;SDS011;47692;53.714;11.372;2023-04-06T00:14:55;19.90;;;10.13;;
61785;SDS011;47692;53.714;11.372;2023-04-06T00:17:20;23.33;;;11.18;;
61785;SDS011;47692;53.714;11.372;2023-04-06T00:19:45;22.77;;;11.27;;
61785;SDS011;47692;53.714;11.372;2023-04-06T00:22:11;23.70;;;11.63;;
61785;SDS011;47692;53.714;11.372;2023-04-06T00:24:36;23.23;;;11.60;;
61785;SDS011;47692;53.714;11.372;2023-04-06T00:27:01;20.45;;;10.75;;
61785;SDS011;47692;53.714;11.372;2023-04-06T00:29:27;17.52;;;9.23;;
61785;SDS011;47692;53.714;11.372;2023-04-06T00:31:52;18.92;;;9.57;;
61785;SDS011;47692;53.714;11.372;2023-04-06T00:34:17;15.13;;;8.40;;
61785;SDS011;47692;53.714;11.372;2023-04-06T00:36:43;15.80;;;8.88;;
61785;SDS011;47692;53.714;11.372;2023-04-06T00:39:09;14.00;;;8.13;;
61785;SDS011;47692;53.714;11.372;2023-04-06T00:41:35;15.73;;;7.95;;
61785;SDS011;47692;53.714;11.372;2023-04-06T00:44:00;16.50;;;8.48;;
61785;SDS011;47692;53.714;11.372;2023-04-06T00:46:26;17.83;;;8.38;;
61785;SDS011;47692;53.714;11.372;2023-04-06T00:48:51;18.13;;;8.95;;
61785;SDS011;47692;53.714;11.372;2023-04-06T00:51:16;21.65;;;10.10;;
61785;SDS011;47692;53.714;11.372;2023-04-06T00:53:42;15.77;;;9.02;;
61785;SDS011;47692;53.714;11.372;2023-04-06T00:56:07;17.58;;;8.77;;
61785;SDS011;47692;53.714;11.372;2023-04-06T00:58:34;17.90;;;9.82;;
61785;SDS011;47692;53.714;11.372;2023-04-06T01:01:03;17.88;;;9.55;;
61785;SDS011;47692;53.714;11.372;2023-04-06T01:03:28;20.35;;;10.55;;
61785;SDS011;47692;53.714;11.372;2023-04-06T01:05:53;21.33;;;10.20;;
61785;SDS011;47692;53.714;11.372;2023-04-06T01:08:23;19.65;;;9.55;;
61785;SDS011;47692;53.714;11.372;2023-04-06T01:10:49;20.17;;;9.88;;
61785;SDS011;47692;53.714;11.372;2023-04-06T01:13:14;17.92;;;8.75;;
61785;SDS011;47692;53.714;11.372;2023-04-06T01:15:40;19.80;;;8.90;;
61785;SDS011;47692;53.714;11.372;2023-04-06T01:18:07;22.95;;;10.10;;
61785;SDS011;47692;53.714;11.372;2023-04-06T01:20:35;18.77;;;10.18;;
61785;SDS011;47692;53.714;11.372;2023-04-06T01:23:00;17.92;;;9.13;;
61785;SDS011;47692;53.714;11.372;2023-04-06T01:25:26;16.90;;;9.75;;
61785;SDS011;47692;53.714;11.372;2023-04-06T01:27:51;19.05;;;9.75;;
61785;SDS011;47692;53.714;11.372;2023-04-06T01:30:16;19.83;;;10.40;;
61785;SDS011;47692;53.714;11.372;2023-04-06T01:32:42;21.45;;;8.68;;
61785;SDS011;47692;53.714;11.372;2023-04-06T01:35:08;20.20;;;9.52;;
61785;SDS011;47692;53.714;11.372;2023-04-06T01:37:33;18.38;;;9.60;;
61785;SDS011;47692;53.714;11.372;2023-04-06T01:39:59;18.45;;;9.25;;
61785;SDS011;47692;53.714;11.372;2023-04-06T01:42:25;20.98;;;9.85;;
61785;SDS011;47692;53.714;11.372;2023-04-06T01:44:51;17.95;;;8.95;;
61785;SDS011;47692;53.714;11.372;2023-04-06T01:47:16;19.38;;;9.05;;
61785;SDS011;47692;53.714;11.372;2023-04-06T01:49:42;22.70;;;10.35;;
61785;SDS011;47692;53.714;11.372;2023-04-06T01:52:07;19.80;;;10.65;;
61785;SDS011;47692;53.714;11.372;2023-04-06T01:54:32;22.63;;;10.27;;
61785;SDS011;47692;53.714;11.372;2023-04-06T01:56:58;17.80;;;10.05;;
61785;SDS011;47692;53.714;11.372;2023-04-06T01:59:23;17.27;;;9.88;;
61785;SDS011;47692;53.714;11.372;2023-04-06T02:01:49;18.88;;;9.50;;
61785;SDS011;47692;53.714;11.372;2023-04-06T02:04:14;21.33;;;10.93;;
61785;SDS011;47692;53.714;11.372;2023-04-06T02:06:40;20.77;;;10.13;;
61785;SDS011;47692;53.714;11.372;2023-04-06T02:09:06;29.70;;;11.88;;
61785;SDS011;47692;53.714;11.372;2023-04-06T02:11:31;20.63;;;10.70;;
61785;SDS011;47692;53.714;11.372;2023-04-06T02:13:56;21.90;;;11.32;;
61785;SDS011;47692;53.714;11.372;2023-04-06T02:16:22;23.50;;;10.93;;
61785;SDS011;47692;53.714;11.372;2023-04-06T02:18:47;24.10;;;11.18;;
61785;SDS011;47692;53.714;11.372;2023-04-06T02:21:12;22.42;;;11.05;;
61785;SDS011;47692;53.714;11.372;2023-04-06T02:23:38;23.75;;;11.25;;
61785;SDS011;47692;53.714;11.372;2023-04-06T02:26:03;27.10;;;12.38;;
61785;SDS011;47692;53.714;11.372;2023-04-06T02:28:28;24.52;;;11.50;;
61785;SDS011;47692;53.714;11.372;2023-04-06T02:30:54;28.38;;;14.07;;
61785;SDS011;47692;53.714;11.372;2023-04-06T02:33:19;26.58;;;12.70;;
61785;SDS011;47692;53.714;11.372;2023-04-06T02:35:44;29.27;;;13.60;;
61785;SDS011;47692;53.714;11.372;2023-04-06T02:38:10;34.60;;;15.95;;
61785;SDS011;47692;53.714;11.372;2023-04-06T02:40:36;33.78;;;14.98;;
61785;SDS011;47692;53.714;11.372;2023-04-06T02:43:01;33.05;;;13.50;;
61785;SDS011;47692;53.714;11.372;2023-04-06T02:45:27;27.35;;;12.95;;
61785;SDS011;47692;53.714;11.372;2023-04-06T02:47:52;25.17;;;13.20;;
61785;SDS011;47692;53.714;11.372;2023-04-06T02:50:17;26.70;;;12.60;;
61785;SDS011;47692;53.714;11.372;2023-04-06T02:52:43;28.00;;;14.05;;
61785;SDS011;47692;53.714;11.372;2023-04-06T02:55:08;31.15;;;13.15;;
61785;SDS011;47692;53.714;11.372;2023-04-06T02:57:34;28.40;;;13.98;;
61785;SDS011;47692;53.714;11.372;2023-04-06T02:59:59;28.40;;;13.32;;
61785;SDS011;47692;53.714;11.372;2023-04-06T03:02:25;25.48;;;11.90;;
61785;SDS011;47692;53.714;11.372;2023-04-06T03:04:50;27.67;;;12.52;;
61785;SDS011;47692;53.714;11.372;2023-04-06T03:07:15;26.23;;;13.23;;
61785;SDS011;47692;53.714;11.372;2023-04-06T03:09:41;30.50;;;12.98;;
61785;SDS011;47692;53.714;11.372;2023-04-06T03:12:06;23.10;;;11.73;;
61785;SDS011;47692;53.714;11.372;2023-04-06T03:14:31;23.33;;;11.60;;
61785;SDS011;47692;53.714;11.372;2023-04-06T03:16:57;34.28;;;14.30;;
61785;SDS011;47692;53.714;11.372;2023-04-06T03:19:22;28.10;;;12.93;;
61785;SDS011;47692;53.714;11.372;2023-04-06T03:21:48;25.92;;;12.82;;
61785;SDS011;47692;53.714;11.372;2023-04-06T03:24:13;30.42;;;12.77;;
61785;SDS011;47692;53.714;11.372;2023-04-06T03:26:39;23.95;;;12.05;;
61785;SDS011;47692;53.714;11.372;2023-04-06T03:29:04;25.10;;;10.63;;
61785;SDS011;47692;53.714;11.372;2023-04-06T03:31:30;19.55;;;9.68;;
61785;SDS011;47692;53.714;11.372;2023-04-06T03:33:55;23.17;;;11.48;;
61785;SDS011;47692;53.714;11.372;2023-04-06T03:36:21;25.27;;;11.90;;
61785;SDS011;47692;53.714;11.372;2023-04-06T03:38:46;21.20;;;11.43;;
61785;SDS011;47692;53.714;11.372;2023-04-06T03:41:12;21.75;;;10.40;;
61785;SDS011;47692;53.714;11.372;2023-04-06T03:43:37;19.85;;;10.65;;
61785;SDS011;47692;53.714;11.372;2023-04-06T03:46:02;23.70;;;10.68;;
61785;SDS011;47692;53.714;11.372;2023-04-06T03:48:28;27.58;;;13.25;;
61785;SDS011;47692;53.714;11.372;2023-04-06T03:50:53;27.75;;;13.38;;
61785;SDS011;47692;53.714;11.372;2023-04-06T03:53:18;29.50;;;13.77;;
61785;SDS011;47692;53.714;11.372;2023-04-06T03:55:44;29.70;;;14.15;;
61785;SDS011;47692;53.714;11.372;2023-04-06T03:58:09;30.63;;;15.20;;
61785;SDS011;47692;53.714;11.372;2023-04-06T04:00:35;32.13;;;14.43;;
61785;SDS011;47692;53.714;11.372;2023-04-06T04:03:01;30.63;;;14.57;;
61785;SDS011;47692;53.714;11.372;2023-04-06T04:05:27;25.33;;;14.00;;
61785;SDS011;47692;53.714;11.372;2023-04-06T04:07:52;25.38;;;12.00;;
61785;SDS011;47692;53.714;11.372;2023-04-06T04:10:18;22.58;;;11.05;;
61785;SDS011;47692;53.714;11.372;2023-04-06T04:12:43;21.48;;;11.43;;
61785;SDS011;47692;53.714;11.372;2023-04-06T04:15:08;26.70;;;12.50;;
61785;SDS011;47692;53.714;11.372;2023-04-06T04:17:34;31.95;;;12.80;;
61785;SDS011;47692;53.714;11.372;2023-04-06T04:19:59;29.02;;;12.30;;
61785;SDS011;47692;53.714;11.372;2023-04-06T04:22:25;22.50;;;11.40;;
61785;SDS011;47692;53.714;11.372;2023-04-06T04:24:52;24.67;;;11.48;;
61785;SDS011;47692;53.714;11.372;2023-04-06T04:27:18;25.00;;;12.10;;
61785;SDS011;47692;53.714;11.372;2023-04-06T04:29:43;23.38;;;11.73;;
61785;SDS011;47692;53.714;11.372;2023-04-06T04:32:08;21.17;;;11.23;;
61785;SDS011;47692;53.714;11.372;2023-04-06T04:34:34;22.05;;;10.65;;
61785;SDS011;47692;53.714;11.372;2023-04-06T04:36:59;18.83;;;10.43;;
61785;SDS011;47692;53.714;11.372;2023-04-06T04:39:25;22.35;;;10.10;;
61785;SDS011;47692;53.714;11.372;2023-04-06T04:41:50;25.63;;;12.43;;
61785;SDS011;47692;53.714;11.372;2023-04-06T04:44:16;25.65;;;11.70;;
61785;SDS011;47692;53.714;11.372;2023-04-06T04:46:41;25.40;;;13.15;;
61785;SDS011;47692;53.714;11.372;2023-04-06T04:49:07;22.45;;;11.25;;
61785;SDS011;47692;53.714;11.372;2023-04-06T04:51:32;22.77;;;10.45;;
61785;SDS011;47692;53.714;11.372;2023-04-06T04:53:58;21.77;;;10.07;;
61785;SDS011;47692;53.714;11.372;2023-04-06T04:56:24;20.40;;;11.25;;
61785;SDS011;47692;53.714;11.372;2023-04-06T04:58:50;18.40;;;10.57;;
61785;SDS011;47692;53.714;11.372;2023-04-06T05:01:15;19.52;;;9.75;;
61785;SDS011;47692;53.714;11.372;2023-04-06T05:03:41;17.77;;;9.35;;
61785;SDS011;47692;53.714;11.372;2023-04-06T05:06:06;22.77;;;10.80;;
61785;SDS011;47692;53.714;11.372;2023-04-06T05:08:32;21.25;;;11.30;;
61785;SDS011;47692;53.714;11.372;2023-04-06T05:10:58;21.70;;;10.27;;
61785;SDS011;47692;53.714;11.372;2023-04-06T05:13:23;18.35;;;9.63;;
61785;SDS011;47692;53.714;11.372;2023-04-06T05:15:49;23.88;;;10.48;;
61785;SDS011;47692;53.714;11.372;2023-04-06T05:18:14;20.77;;;9.82;;
61785;SDS011;47692;53.714;11.372;2023-04-06T05:20:40;16.10;;;8.60;;
61785;SDS011;47692;53.714;11.372;2023-04-06T05:23:06;20.00;;;9.95;;
61785;SDS011;47692;53.714;11.372;2023-04-06T05:25:31;17.27;;;10.18;;
61785;SDS011;47692;53.714;11.372;2023-04-06T05:27:57;19.80;;;10.18;;
61785;SDS011;47692;53.714;11.372;2023-04-06T05:30:22;23.55;;;10.60;;
61785;SDS011;47692;53.714;11.372;2023-04-06T05:32:48;22.60;;;11.20;;
61785;SDS011;47692;53.714;11.372;2023-04-06T05:35:14;20.55;;;10.65;;
61785;SDS011;47692;53.714;11.372;2023-04-06T05:37:40;19.65;;;10.63;;
61785;SDS011;47692;53.714;11.372;2023-04-06T05:40:05;20.70;;;10.35;;
61785;SDS011;47692;53.714;11.372;2023-04-06T05:42:37;22.55;;;10.77;;
61785;SDS011;47692;53.714;11.372;2023-04-06T05:45:04;20.25;;;10.38;;
61785;SDS011;47692;53.714;11.372;2023-04-06T05:47:32;16.17;;;9.38;;
61785;SDS011;47692;53.714;11.372;2023-04-06T05:49:58;21.90;;;11.10;;
61785;SDS011;47692;53.714;11.372;2023-04-06T05:52:23;25.83;;;11.10;;
61785;SDS011;47692;53.714;11.372;2023-04-06T05:54:49;20.60;;;10.30;;
61785;SDS011;47692;53.714;11.372;2023-04-06T05:57:15;22.45;;;10.65;;
61785;SDS011;47692;53.714;11.372;2023-04-06T05:59:41;24.02;;;12.20;;
61785;SDS011;47692;53.714;11.372;2023-04-06T06:02:07;20.35;;;10.95;;
61785;SDS011;47692;53.714;11.372;2023-04-06T06:04:32;25.38;;;11.20;;
61785;SDS011;47692;53.714;11.372;2023-04-06T06:06:58;21.08;;;10.82;;
61785;SDS011;47692;53.714;11.372;2023-04-06T06:09:23;23.65;;;11.68;;
61785;SDS011;47692;53.714;11.372;2023-04-06T06:11:49;19.63;;;9.65;;
61785;SDS011;47692;53.714;11.372;2023-04-06T06:14:14;20.20;;;11.00;;
61785;SDS011;47692;53.714;11.372;2023-04-06T06:16:40;19.05;;;10.68;;
61785;SDS011;47692;53.714;11.372;2023-04-06T06:19:05;20.52;;;11.70;;
61785;SDS011;47692;53.714;11.372;2023-04-06T06:21:31;23.60;;;11.98;;
61785;SDS011;47692;53.714;11.372;2023-04-06T06:23:56;21.55;;;11.00;;
61785;SDS011;47692;53.714;11.372;2023-04-06T06:26:22;23.40;;;11.25;;
61785;SDS011;47692;53.714;11.372;2023-04-06T06:28:47;22.27;;;10.60;;
61785;SDS011;47692;53.714;11.372;2023-04-06T06:31:12;21.13;;;11.35;;
61785;SDS011;47692;53.714;11.372;2023-04-06T06:33:38;24.20;;;12.15;;
61785;SDS011;47692;53.714;11.372;2023-04-06T06:36:03;24.13;;;11.32;;
61785;SDS011;47692;53.714;11.372;2023-04-06T06:38:29;21.02;;;11.68;;
61785;SDS011;47692;53.714;11.372;2023-04-06T06:40:54;21.67;;;10.50;;
61785;SDS011;47692;53.714;11.372;2023-04-06T06:43:20;23.17;;;11.30;;
61785;SDS011;47692;53.714;11.372;2023-04-06T06:45:45;20.90;;;10.00;;
61785;SDS011;47692;53.714;11.372;2023-04-06T06:48:10;22.00;;;10.63;;
61785;SDS011;47692;53.714;11.372;2023-04-06T06:50:37;22.20;;;10.15;;
61785;SDS011;47692;53.714;11.372;2023-04-06T06:53:02;21.90;;;10.00;;
61785;SDS011;47692;53.714;11.372;2023-04-06T06:55:27;17.00;;;10.48;;
61785;SDS011;47692;53.714;11.372;2023-04-06T06:57:53;17.42;;;10.10;;
61785;SDS011;47692;53.714;11.372;2023-04-06T07:00:19;18.92;;;9.60;;
61785;SDS011;47692;53.714;11.372;2023-04-06T07:02:47;16.70;;;10.10;;
61785;SDS011;47692;53.714;11.372;2023-04-06T07:05:13;21.98;;;10.68;;
61785;SDS011;47692;53.714;11.372;2023-04-06T07:07:40;17.15;;;9.93;;
61785;SDS011;47692;53.714;11.372;2023-04-06T07:10:06;15.27;;;8.68;;
61785;SDS011;47692;53.714;11.372;2023-04-06T07:12:32;18.40;;;9.02;;
61785;SDS011;47692;53.714;11.372;2023-04-06T07:14:58;17.35;;;8.32;;
61785;SDS011;47692;53.714;11.372;2023-04-06T07:17:23;14.27;;;7.82;;
61785;SDS011;47692;53.714;11.372;2023-04-06T07:19:48;16.25;;;7.85;;
61785;SDS011;47692;53.714;11.372;2023-04-06T07:22:14;14.43;;;8.32;;
61785;SDS011;47692;53.714;11.372;2023-04-06T07:24:39;18.52;;;7.53;;
61785;SDS011;47692;53.714;11.372;2023-04-06T07:27:05;12.65;;;7.57;;
61785;SDS011;47692;53.714;11.372;2023-04-06T07:29:31;11.77;;;7.15;;
61785;SDS011;47692;53.714;11.372;2023-04-06T07:31:56;14.15;;;7.72;;
61785;SDS011;47692;53.714;11.372;2023-04-06T07:34:22;10.77;;;6.90;;
61785;SDS011;47692;53.714;11.372;2023-04-06T07:36:47;13.40;;;7.10;;
61785;SDS011;47692;53.714;11.372;2023-04-06T07:39:13;11.02;;;6.63;;
61785;SDS011;47692;53.714;11.372;2023-04-06T07:41:38;13.00;;;7.32;;
61785;SDS011;47692;53.714;11.372;2023-04-06T07:44:04;8.75;;;6.10;;
61785;SDS011;47692;53.714;11.372;2023-04-06T07:46:30;11.35;;;6.97;;
61785;SDS011;47692;53.714;11.372;2023-04-06T07:48:56;11.23;;;6.47;;
61785;SDS011;47692;53.714;11.372;2023-04-06T07:51:22;9.82;;;6.03;;
61785;SDS011;47692;53.714;11.372;2023-04-06T07:53:48;9.52;;;6.05;;
61785;SDS011;47692;53.714;11.372;2023-04-06T07:56:13;8.85;;;5.57;;
61785;SDS011;47692;53.714;11.372;2023-04-06T07:58:40;10.32;;;5.78;;
61785;SDS011;47692;53.714;11.372;2023-04-06T08:01:05;9.77;;;6.00;;
61785;SDS011;47692;53.714;11.372;2023-04-06T08:03:33;8.63;;;5.15;;
61785;SDS011;47692;53.714;11.372;2023-04-06T08:05:58;9.52;;;5.40;;
61785;SDS011;47692;53.714;11.372;2023-04-06T08:08:24;13.02;;;5.70;;
61785;SDS011;47692;53.714;11.372;2023-04-06T08:10:49;9.80;;;4.75;;
61785;SDS011;47692;53.714;11.372;2023-04-06T08:13:15;7.15;;;4.85;;
61785;SDS011;47692;53.714;11.372;2023-04-06T08:15:41;7.78;;;4.50;;
61785;SDS011;47692;53.714;11.372;2023-04-06T08:18:06;9.15;;;5.38;;
61785;SDS011;47692;53.714;11.372;2023-04-06T08:20:31;10.65;;;5.03;;
61785;SDS011;47692;53.714;11.372;2023-04-06T08:22:57;8.57;;;4.93;;
61785;SDS011;47692;53.714;11.372;2023-04-06T08:25:22;8.00;;;4.45;;
61785;SDS011;47692;53.714;11.372;2023-04-06T08:27:48;8.85;;;4.68;;
61785;SDS011;47692;53.714;11.372;2023-04-06T08:30:13;8.90;;;4.70;;
61785;SDS011;47692;53.714;11.372;2023-04-06T08:32:40;8.27;;;4.60;;
61785;SDS011;47692;53.714;11.372;2023-04-06T08:35:07;9.30;;;4.68;;
61785;SDS011;47692;53.714;11.372;2023-04-06T08:37:33;8.63;;;4.78;;
61785;SDS011;47692;53.714;11.372;2023-04-06T08:39:58;11.85;;;4.47;;
61785;SDS011;47692;53.714;11.372;2023-04-06T08:42:25;8.68;;;4.93;;
61785;SDS011;47692;53.714;11.372;2023-04-06T08:44:51;7.00;;;4.65;;
61785;SDS011;47692;53.714;11.372;2023-04-06T08:47:17;9.18;;;4.80;;
61785;SDS011;47692;53.714;11.372;2023-04-06T08:49:43;7.38;;;4.60;;
61785;SDS011;47692;53.714;11.372;2023-04-06T08:52:11;9.32;;;4.93;;
61785;SDS011;47692;53.714;11.372;2023-04-06T08:54:37;8.50;;;4.50;;
61785;SDS011;47692;53.714;11.372;2023-04-06T08:57:03;8.93;;;4.82;;
61785;SDS011;47692;53.714;11.372;2023-04-06T08:59:31;7.88;;;4.42;;
61785;SDS011;47692;53.714;11.372;2023-04-06T09:01:57;7.75;;;4.18;;
61785;SDS011;47692;53.714;11.372;2023-04-06T09:04:24;8.55;;;4.07;;
61785;SDS011;47692;53.714;11.372;2023-04-06T09:06:51;9.38;;;4.45;;
61785;SDS011;47692;53.714;11.372;2023-04-06T09:09:17;9.55;;;4.43;;
61785;SDS011;47692;53.714;11.372;2023-04-06T09:11:49;8.23;;;4.72;;
61785;SDS011;47692;53.714;11.372;2023-04-06T09:14:15;7.78;;;4.10;;
61785;SDS011;47692;53.714;11.372;2023-04-06T09:16:44;9.52;;;3.90;;
61785;SDS011;47692;53.714;11.372;2023-04-06T09:19:11;7.45;;;4.10;;
61785;SDS011;47692;53.714;11.372;2023-04-06T09:21:37;7.97;;;4.03;;
61785;SDS011;47692;53.714;11.372;2023-04-06T09:24:05;5.97;;;3.90;;
61785;SDS011;47692;53.714;11.372;2023-04-06T09:26:32;5.18;;;3.00;;
61785;SDS011;47692;53.714;11.372;2023-04-06T09:28:58;6.75;;;3.15;;
61785;SDS011;47692;53.714;11.372;2023-04-06T09:31:29;7.40;;;3.90;;
61785;SDS011;47692;53.714;11.372;2023-04-06T09:33:58;6.75;;;3.78;;
61785;SDS011;47692;53.714;11.372;2023-04-06T09:38:58;7.50;;;3.47;;
61785;SDS011;47692;53.714;11.372;2023-04-06T09:41:25;6.13;;;3.75;;
61785;SDS011;47692;53.714;11.372;2023-04-06T09:43:52;6.07;;;3.78;;
61785;SDS011;47692;53.714;11.372;2023-04-06T09:46:27;6.47;;;3.65;;
61785;SDS011;47692;53.714;11.372;2023-04-06T09:48:56;5.95;;;3.40;;
61785;SDS011;47692;53.714;11.372;2023-04-06T09:51:23;5.03;;;3.15;;
61785;SDS011;47692;53.714;11.372;2023-04-06T09:53:51;4.95;;;3.13;;
61785;SDS011;47692;53.714;11.372;2023-04-06T09:56:20;8.13;;;3.63;;
61785;SDS011;47692;53.714;11.372;2023-04-06T09:58:51;5.15;;;2.83;;
61785;SDS011;47692;53.714;11.372;2023-04-06T10:01:20;4.38;;;3.03;;
61785;SDS011;47692;53.714;11.372;2023-04-06T10:03:54;5.25;;;3.10;;
61785;SDS011;47692;53.714;11.372;2023-04-06T10:06:32;7.25;;;3.50;;
61785;SDS011;47692;53.714;11.372;2023-04-06T10:09:01;6.57;;;3.58;;
61785;SDS011;47692;53.714;11.372;2023-04-06T10:11:30;5.57;;;3.45;;
61785;SDS011;47692;53.714;11.372;2023-04-06T10:13:55;4.93;;;3.03;;
61785;SDS011;47692;53.714;11.372;2023-04-06T10:16:22;8.35;;;2.88;;
61785;SDS011;47692;53.714;11.372;2023-04-06T10:18:52;5.45;;;3.15;;
61785;SDS011;47692;53.714;11.372;2023-04-06T10:21:23;4.50;;;2.60;;
61785;SDS011;47692;53.714;11.372;2023-04-06T10:23:53;4.65;;;2.65;;
61785;SDS011;47692;53.714;11.372;2023-04-06T10:26:24;6.18;;;2.83;;
61785;SDS011;47692;53.714;11.372;2023-04-06T10:28:50;5.00;;;2.85;;
61785;SDS011;47692;53.714;11.372;2023-04-06T10:31:23;5.00;;;3.03;;
61785;SDS011;47692;53.714;11.372;2023-04-06T10:34:01;5.25;;;3.20;;
61785;SDS011;47692;53.714;11.372;2023-04-06T10:36:28;7.43;;;4.72;;
61785;SDS011;47692;53.714;11.372;2023-04-06T10:38:57;6.00;;;3.17;;
61785;SDS011;47692;53.714;11.372;2023-04-06T10:41:31;5.65;;;3.55;;
61785;SDS011;47692;53.714;11.372;2023-04-06T10:44:05;7.35;;;3.90;;
61785;SDS011;47692;53.714;11.372;2023-04-06T10:46:32;7.90;;;4.20;;
61785;SDS011;47692;53.714;11.372;2023-04-06T10:48:58;7.47;;;3.95;;
61785;SDS011;47692;53.714;11.372;2023-04-06T10:51:37;6.25;;;3.75;;
61785;SDS011;47692;53.714;11.372;2023-04-06T10:54:03;6.85;;;3.90;;
61785;SDS011;47692;53.714;11.372;2023-04-06T10:56:31;7.80;;;4.28;;
61785;SDS011;47692;53.714;11.372;2023-04-06T10:59:01;6.43;;;4.57;;
61785;SDS011;47692;53.714;11.372;2023-04-06T11:01:27;7.32;;;4.18;;
61785;SDS011;47692;53.714;11.372;2023-04-06T11:03:54;6.75;;;4.15;;
61785;SDS011;47692;53.714;11.372;2023-04-06T11:08:46;9.60;;;4.60;;
61785;SDS011;47692;53.714;11.372;2023-04-06T11:11:13;7.97;;;4.45;;
61785;SDS011;47692;53.714;11.372;2023-04-06T11:13:45;7.22;;;4.13;;
61785;SDS011;47692;53.714;11.372;2023-04-06T11:16:20;8.23;;;4.53;;
61785;SDS011;47692;53.714;11.372;2023-04-06T11:21:15;7.85;;;4.38;;
61785;SDS011;47692;53.714;11.372;2023-04-06T11:23:41;8.85;;;4.50;;
61785;SDS011;47692;53.714;11.372;2023-04-06T11:26:10;8.75;;;4.82;;
61785;SDS011;47692;53.714;11.372;2023-04-06T11:28:42;7.40;;;4.82;;
61785;SDS011;47692;53.714;11.372;2023-04-06T11:31:08;7.03;;;4.45;;
61785;SDS011;47692;53.714;11.372;2023-04-06T11:33:38;7.80;;;4.82;;
61785;SDS011;47692;53.714;11.372;2023-04-06T11:36:05;8.63;;;4.82;;
61785;SDS011;47692;53.714;11.372;2023-04-06T11:38:30;10.00;;;5.47;;
61785;SDS011;47692;53.714;11.372;2023-04-06T11:40:56;8.32;;;5.00;;
61785;SDS011;47692;53.714;11.372;2023-04-06T11:43:28;7.78;;;5.45;;
61785;SDS011;47692;53.714;11.372;2023-04-06T11:46:02;9.38;;;5.53;;
61785;SDS011;47692;53.714;11.372;2023-04-06T11:48:28;7.72;;;5.50;;
61785;SDS011;47692;53.714;11.372;2023-04-06T11:50:57;14.35;;;6.30;;
61785;SDS011;47692;53.714;11.372;2023-04-06T11:53:26;8.68;;;5.60;;
61785;SDS011;47692;53.714;11.372;2023-04-06T11:55:52;7.00;;;4.72;;
61785;SDS011;47692;53.714;11.372;2023-04-06T11:58:18;10.93;;;5.95;;
61785;SDS011;47692;53.714;11.372;2023-04-06T12:00:43;9.70;;;6.05;;
61785;SDS011;47692;53.714;11.372;2023-04-06T12:03:13;8.82;;;5.93;;
61785;SDS011;47692;53.714;11.372;2023-04-06T12:05:39;10.90;;;5.63;;
61785;SDS011;47692;53.714;11.372;2023-04-06T12:08:05;10.13;;;5.90;;
61785;SDS011;47692;53.714;11.372;2023-04-06T12:10:30;9.88;;;5.65;;
61785;SDS011;47692;53.714;11.372;2023-04-06T12:12:55;8.30;;;5.68;;
61785;SDS011;47692;53.714;11.372;2023-04-06T12:15:21;9.60;;;5.00;;
61785;SDS011;47692;53.714;11.372;2023-04-06T12:17:46;9.02;;;5.93;;
61785;SDS011;47692;53.714;11.372;2023-04-06T12:20:12;8.45;;;5.45;;
61785;SDS011;47692;53.714;11.372;2023-04-06T12:22:38;9.27;;;6.13;;
61785;SDS011;47692;53.714;11.372;2023-04-06T12:25:04;8.02;;;6.18;;
61785;SDS011;47692;53.714;11.372;2023-04-06T12:27:31;7.93;;;5.55;;
61785;SDS011;47692;53.714;11.372;2023-04-06T12:29:57;10.52;;;6.25;;
61785;SDS011;47692;53.714;11.372;2023-04-06T12:32:22;10.88;;;6.93;;
61785;SDS011;47692;53.714;11.372;2023-04-06T12:34:48;9.70;;;6.07;;
61785;SDS011;47692;53.714;11.372;2023-04-06T12:37:13;11.85;;;5.88;;
61785;SDS011;47692;53.714;11.372;2023-04-06T12:39:38;8.45;;;5.97;;
61785;SDS011;47692;53.714;11.372;2023-04-06T12:42:04;9.48;;;5.95;;
61785;SDS011;47692;53.714;11.372;2023-04-06T12:44:30;9.50;;;6.10;;
61785;SDS011;47692;53.714;11.372;2023-04-06T12:46:55;10.48;;;6.93;;
61785;SDS011;47692;53.714;11.372;2023-04-06T12:49:21;7.78;;;5.22;;
61785;SDS011;47692;53.714;11.372;2023-04-06T12:51:46;9.13;;;6.22;;
61785;SDS011;47692;53.714;11.372;2023-04-06T12:54:12;8.02;;;5.80;;
61785;SDS011;47692;53.714;11.372;2023-04-06T12:56:37;10.30;;;6.07;;
61785;SDS011;47692;53.714;11.372;2023-04-06T12:59:03;9.43;;;5.90;;
61785;SDS011;47692;53.714;11.372;2023-04-06T13:01:29;8.85;;;5.72;;
61785;SDS011;47692;53.714;11.372;2023-04-06T13:03:55;9.23;;;5.65;;
61785;SDS011;47692;53.714;11.372;2023-04-06T13:06:21;8.00;;;5.70;;
61785;SDS011;47692;53.714;11.372;2023-04-06T13:08:47;10.38;;;5.75;;
61785;SDS011;47692;53.714;11.372;2023-04-06T13:11:14;8.73;;;6.13;;
61785;SDS011;47692;53.714;11.372;2023-04-06T13:13:40;8.00;;;5.30;;
61785;SDS011;47692;53.714;11.372;2023-04-06T13:16:07;10.13;;;5.78;;
61785;SDS011;47692;53.714;11.372;2023-04-06T13:18:33;7.57;;;4.78;;
61785;SDS011;47692;53.714;11.372;2023-04-06T13:21:00;7.07;;;4.75;;
61785;SDS011;47692;53.714;11.372;2023-04-06T13:23:25;6.97;;;5.35;;
61785;SDS011;47692;53.714;11.372;2023-04-06T13:26:01;8.95;;;4.72;;
61785;SDS011;47692;53.714;11.372;2023-04-06T13:28:31;8.13;;;5.07;;
61785;SDS011;47692;53.714;11.372;2023-04-06T13:30:58;7.45;;;5.13;;
61785;SDS011;47692;53.714;11.372;2023-04-06T13:33:24;6.60;;;4.95;;
61785;SDS011;47692;53.714;11.372;2023-04-06T13:35:50;7.40;;;4.88;;
61785;SDS011;47692;53.714;11.372;2023-04-06T13:38:15;7.65;;;4.85;;
61785;SDS011;47692;53.714;11.372;2023-04-06T13:40:41;8.80;;;5.25;;
61785;SDS011;47692;53.714;11.372;2023-04-06T13:43:07;8.23;;;4.88;;
61785;SDS011;47692;53.714;11.372;2023-04-06T13:45:32;13.43;;;6.05;;
61785;SDS011;47692;53.714;11.372;2023-04-06T13:47:58;7.40;;;5.03;;
61785;SDS011;47692;53.714;11.372;2023-04-06T13:50:27;7.82;;;4.70;;
61785;SDS011;47692;53.714;11.372;2023-04-06T13:52:53;6.78;;;4.95;;
61785;SDS011;47692;53.714;11.372;2023-04-06T13:55:18;6.50;;;5.03;;
61785;SDS011;47692;53.714;11.372;2023-04-06T13:57:43;7.05;;;4.88;;
61785;SDS011;47692;53.714;11.372;2023-04-06T14:00:09;8.38;;;5.30;;
61785;SDS011;47692;53.714;11.372;2023-04-06T14:02:37;6.95;;;4.47;;
61785;SDS011;47692;53.714;11.372;2023-04-06T14:05:02;6.63;;;4.72;;
61785;SDS011;47692;53.714;11.372;2023-04-06T14:07:28;8.05;;;4.80;;
61785;SDS011;47692;53.714;11.372;2023-04-06T14:09:53;7.18;;;4.85;;
61785;SDS011;47692;53.714;11.372;2023-04-06T14:12:19;8.40;;;4.60;;
61785;SDS011;47692;53.714;11.372;2023-04-06T14:14:44;8.80;;;4.85;;
61785;SDS011;47692;53.714;11.372;2023-04-06T14:17:10;6.82;;;4.43;;
61785;SDS011;47692;53.714;11.372;2023-04-06T14:19:35;6.65;;;4.82;;
61785;SDS011;47692;53.714;11.372;2023-04-06T14:22:01;6.22;;;4.78;;